Flugplatz Rotenburg (Wümme)

Für EDXQ sind keine METAR/TAF Berichte vorhanden.
Es werden die Flugwettermeldungen vom Flugplatz Bremen in 38 km Entfernung angezeigt.

Bericht für EDDW

vom 14.11. um 11:50 UTC

Wind 7 kt aus 100°

Sichtweite 10 km oder mehr

gute Sicht, keine Wolken < 5000 ft, keine CB, keine Wettererscheinungen (CAVOK)

Temperatur 7.0°C

Taupunkt 3.0°C

Luftfeuchtigkeit 76%

Luftdruck 1006 hPa

keine wesentliche Wetteränderung innerhalb den nächsten 2 Stunden zu erwarten

EDDW 141150Z 10007KT 070V130 CAVOK 07/03 Q1006 NOSIG

Prognose für EDDW

vom 14.11. um 00:00 UTC

Zwischen 00:00 UTC und 00:00 UTC

Wind 9 kt aus 120°

Sichtweite 10 km oder mehr

keine signifikanten Wettererscheinungen

keine Wolken


Am 15.11. zwischen 00:00 und 00:00 UTC übergehend zu

Wind 9 kt aus 120°

Sichtweite 10 km oder mehr

keine signifikanten Wettererscheinungen

aufgebrochene Bewölkung in 700 ft


Am 15.11. zwischen 00:00 und 00:00 UTC übergehend zu

Wind 15 kt aus 80° in Böen 25 kt

Sichtweite 10 km oder mehr

keine signifikanten Wettererscheinungen

aufgebrochene Bewölkung in 700 ft


Am 15.11. zwischen 00:00 und 00:00 UTC übergehend zu

Wind 15 kt aus 80° in Böen 25 kt

Sichtweite 10 km oder mehr

keine signifikanten Wettererscheinungen

aufgebrochene Bewölkung in 1200 ft

TAF EDDW 141100Z 1412/1512 12009KT CAVOK BECMG 1502/1505 BKN007 BECMG 1505/1508 08015G25KT BECMG 1509/1512 BKN012
Impressum